Time;durP1;ratioP1;P1;durP2;ratioP2;P2;SDS_P1;SDS_P2;PMS_P1;PMS_P2;Temp;Humidity;BMP_temperature;BMP_pressure;BME280_temperature;BME280_humidity;BME280_pressure;Samples;Min_cycle;Max_cycle;Signal;HPM_P1;HPM_P2
2022/08/28 00:01:31;;;;;;;9.77;4.88;;;;;;;;;;5054157;28;20196;-49
2022/08/28 00:03:59;;;;;;;11.48;5.07;;;;;;;;;;5054177;28;20286;-46
2022/08/28 00:06:26;;;;;;;13.65;5.95;;;;;;;;;;5054314;28;20216;-48
2022/08/28 00:08:54;;;;;;;16.00;5.70;;;;;;;;;;5054210;28;20207;-48
2022/08/28 00:11:22;;;;;;;6.75;4.88;;;;;;;;;;5054132;28;20238;-47
2022/08/28 00:13:50;;;;;;;18.23;5.32;;;;;;;;;;5054131;28;20230;-47
2022/08/28 00:16:18;;;;;;;11.40;4.70;;;;;;;;;;5054359;28;20200;-50
2022/08/28 00:18:45;;;;;;;12.13;4.82;;;;;;;;;;5057406;28;20212;-48
2022/08/28 00:21:13;;;;;;;9.23;4.32;;;;;;;;;;5057994;28;20215;-48
2022/08/28 00:23:42;;;;;;;10.82;5.70;;;;;;;;;;5056828;28;20222;-51
2022/08/28 00:26:10;;;;;;;9.45;4.63;;;;;;;;;;5057944;28;20234;-47
2022/08/28 00:28:37;;;;;;;15.48;4.80;;;;;;;;;;5057822;28;20215;-50
2022/08/28 00:31:04;;;;;;;12.25;4.65;;;;;;;;;;5057648;28;20633;-46
2022/08/28 00:33:33;;;;;;;12.68;5.55;;;;;;;;;;5057580;28;20201;-49
2022/08/28 00:36:01;;;;;;;9.75;5.57;;;;;;;;;;5056796;28;20270;-47
2022/08/28 00:38:29;;;;;;;9.68;4.93;;;;;;;;;;5056063;28;20311;-48
2022/08/28 00:40:59;;;;;;;9.90;5.18;;;;;;;;;;5057241;28;20624;-49
2022/08/28 00:43:32;;;;;;;10.15;5.55;;;;;;;;;;5057161;28;20275;-47
2022/08/28 00:46:01;;;;;;;7.80;5.15;;;;;;;;;;5039336;28;20214;-48
2022/08/28 00:48:28;;;;;;;12.18;5.30;;;;;;;;;;5057397;28;20250;-48
2022/08/28 00:53:42;;;;;;;13.98;5.35;;;;;;;;;;5056931;28;20584;-48
2022/08/28 00:56:11;;;;;;;18.25;6.07;;;;;;;;;;5040076;28;20269;-50
2022/08/28 00:58:41;;;;;;;15.60;6.15;;;;;;;;;;5057539;28;20216;-49
2022/08/28 01:01:08;;;;;;;13.52;5.18;;;;;;;;;;5039998;28;20211;-48
2022/08/28 01:03:36;;;;;;;17.08;5.80;;;;;;;;;;5039471;28;20231;-48
2022/08/28 01:06:03;;;;;;;11.73;5.35;;;;;;;;;;5057067;28;20270;-48
2022/08/28 01:08:32;;;;;;;12.43;5.60;;;;;;;;;;5057175;28;20204;-48
2022/08/28 01:11:02;;;;;;;14.85;5.55;;;;;;;;;;5056888;28;20207;-52
2022/08/28 01:13:30;;;;;;;7.55;4.82;;;;;;;;;;5039694;28;20204;-49
2022/08/28 01:15:58;;;;;;;9.02;5.18;;;;;;;;;;5056634;28;20208;-48
2022/08/28 01:18:26;;;;;;;14.43;5.75;;;;;;;;;;5039441;28;20212;-49
2022/08/28 01:21:19;;;;;;;9.55;5.03;;;;;;;;;;5056891;28;20228;-48
2022/08/28 01:23:52;;;;;;;11.73;5.95;;;;;;;;;;5031077;28;20224;-46
2022/08/28 01:26:20;;;;;;;13.75;5.88;;;;;;;;;;5056554;28;20299;-49
2022/08/28 01:28:48;;;;;;;9.55;5.30;;;;;;;;;;5055607;28;20532;-47
2022/08/28 01:31:15;;;;;;;12.93;5.55;;;;;;;;;;5056920;28;20215;-48
2022/08/28 01:33:44;;;;;;;8.77;5.18;;;;;;;;;;5056505;28;20200;-48
2022/08/28 01:36:13;;;;;;;15.95;5.82;;;;;;;;;;5056294;28;20513;-51
2022/08/28 01:38:41;;;;;;;8.80;5.15;;;;;;;;;;5056321;28;20243;-47
2022/08/28 01:41:10;;;;;;;18.20;6.25;;;;;;;;;;5039180;28;20218;-49
2022/08/28 01:43:39;;;;;;;13.23;5.10;;;;;;;;;;5056002;28;20545;-49
2022/08/28 01:46:06;;;;;;;12.80;5.38;;;;;;;;;;5056014;28;20199;-47
2022/08/28 01:48:36;;;;;;;13.02;5.60;;;;;;;;;;5056699;28;20208;-51
2022/08/28 01:51:04;;;;;;;12.05;5.60;;;;;;;;;;5056251;28;20609;-47
2022/08/28 01:53:32;;;;;;;10.18;5.38;;;;;;;;;;5056006;28;20204;-46
2022/08/28 01:56:03;;;;;;;11.07;5.70;;;;;;;;;;5056536;28;20207;-49
2022/08/28 01:58:30;;;;;;;12.73;5.50;;;;;;;;;;5056541;28;20196;-48
2022/08/28 02:01:09;;;;;;;10.32;5.13;;;;;;;;;;5056149;28;20192;-49
2022/08/28 02:03:36;;;;;;;14.07;5.65;;;;;;;;;;5056089;28;20223;-46
2022/08/28 02:06:04;;;;;;;12.65;6.20;;;;;;;;;;5056315;28;20656;-51
2022/08/28 02:08:31;;;;;;;13.68;5.97;;;;;;;;;;5056010;28;20204;-48
2022/08/28 02:10:59;;;;;;;10.25;6.47;;;;;;;;;;5055661;28;20641;-47
2022/08/28 02:13:26;;;;;;;12.43;5.57;;;;;;;;;;5055812;28;20640;-47
2022/08/28 02:15:53;;;;;;;12.45;6.47;;;;;;;;;;5055759;28;20207;-48
2022/08/28 02:18:21;;;;;;;11.95;6.60;;;;;;;;;;5038354;28;20648;-48
2022/08/28 02:20:48;;;;;;;12.50;7.10;;;;;;;;;;5055526;28;20212;-48
2022/08/28 02:23:15;;;;;;;11.50;6.63;;;;;;;;;;5055299;28;20607;-48
2022/08/28 02:25:42;;;;;;;11.73;6.30;;;;;;;;;;5055644;28;20204;-47
2022/08/28 02:28:09;;;;;;;18.15;6.57;;;;;;;;;;5055466;28;20238;-47
2022/08/28 02:30:37;;;;;;;12.98;6.35;;;;;;;;;;5055396;28;20214;-49
2022/08/28 02:33:04;;;;;;;11.27;6.18;;;;;;;;;;5038295;28;20215;-50
2022/08/28 02:35:31;;;;;;;10.10;6.53;;;;;;;;;;5055499;28;20211;-48
2022/08/28 02:37:58;;;;;;;11.50;6.50;;;;;;;;;;5055595;28;20672;-47
2022/08/28 02:40:27;;;;;;;12.52;6.90;;;;;;;;;;5054670;28;20641;-48
2022/08/28 02:42:54;;;;;;;13.75;6.70;;;;;;;;;;5055168;28;20575;-48
2022/08/28 02:45:20;;;;;;;19.20;7.03;;;;;;;;;;5055099;28;20269;-47
2022/08/28 02:47:51;;;;;;;14.18;6.10;;;;;;;;;;5055159;28;20212;-48
2022/08/28 02:50:18;;;;;;;11.88;5.93;;;;;;;;;;5055017;28;20629;-47
2022/08/28 02:52:46;;;;;;;8.93;5.60;;;;;;;;;;5004891;28;20208;-48
2022/08/28 02:55:16;;;;;;;11.00;5.97;;;;;;;;;;5055317;28;20218;-49
2022/08/28 02:57:44;;;;;;;11.98;5.63;;;;;;;;;;5055132;28;20290;-50
2022/08/28 03:00:15;;;;;;;15.43;6.30;;;;;;;;;;5055019;28;20269;-48
2022/08/28 03:02:44;;;;;;;13.60;6.15;;;;;;;;;;5054729;28;20261;-49
2022/08/28 03:05:14;;;;;;;12.80;6.50;;;;;;;;;;5054924;28;20207;-47
2022/08/28 03:07:41;;;;;;;10.55;5.75;;;;;;;;;;5054759;28;20219;-47
2022/08/28 03:10:09;;;;;;;13.13;6.30;;;;;;;;;;5054557;28;20607;-49
2022/08/28 03:12:37;;;;;;;12.27;6.38;;;;;;;;;;5054367;28;20207;-47
2022/08/28 03:15:05;;;;;;;11.50;6.32;;;;;;;;;;5054573;28;20633;-49
2022/08/28 03:17:33;;;;;;;11.60;6.25;;;;;;;;;;5054367;28;20200;-48
2022/08/28 03:20:00;;;;;;;10.00;5.82;;;;;;;;;;5054283;28;20699;-48
2022/08/28 03:23:25;;;;;;;12.30;5.88;;;;;;;;;;5054510;28;20231;-48
2022/08/28 03:25:17;;;;;;;12.15;6.45;;;;;;;;;;5054237;28;20223;-48
2022/08/28 03:27:44;;;;;;;11.82;5.20;;;;;;;;;;5054284;28;20547;-50
2022/08/28 03:30:12;;;;;;;13.55;6.30;;;;;;;;;;5054297;28;20211;-48
2022/08/28 03:32:40;;;;;;;10.63;5.53;;;;;;;;;;5054322;28;20644;-47
2022/08/28 03:35:07;;;;;;;14.73;6.03;;;;;;;;;;5054539;28;20200;-47
2022/08/28 03:37:34;;;;;;;13.50;6.07;;;;;;;;;;5054422;28;20226;-47
2022/08/28 03:40:03;;;;;;;9.93;6.53;;;;;;;;;;5054330;28;20208;-49
2022/08/28 03:42:30;;;;;;;11.75;8.00;;;;;;;;;;5054109;28;20680;-48
2022/08/28 03:44:58;;;;;;;13.65;6.72;;;;;;;;;;5054142;28;20224;-50
2022/08/28 03:47:27;;;;;;;12.10;7.05;;;;;;;;;;5053931;28;20200;-48
2022/08/28 03:49:56;;;;;;;14.48;7.53;;;;;;;;;;5054187;28;20227;-47
2022/08/28 03:52:23;;;;;;;15.32;7.50;;;;;;;;;;5055240;28;20218;-47
2022/08/28 03:54:51;;;;;;;12.70;7.75;;;;;;;;;;5058244;28;20636;-47
2022/08/28 03:57:20;;;;;;;12.63;7.50;;;;;;;;;;5058168;28;20208;-51
2022/08/28 03:59:49;;;;;;;12.43;6.97;;;;;;;;;;5058052;28;20253;-47
2022/08/28 04:02:18;;;;;;;11.50;6.68;;;;;;;;;;5057947;28;20207;-47
2022/08/28 04:04:46;;;;;;;11.77;6.60;;;;;;;;;;5054452;28;20519;-51
2022/08/28 04:07:13;;;;;;;9.93;7.05;;;;;;;;;;5050434;28;20693;-48
2022/08/28 04:09:40;;;;;;;12.77;6.82;;;;;;;;;;5047797;28;20659;-52
2022/08/28 04:12:08;;;;;;;10.63;6.35;;;;;;;;;;5029394;28;20211;-47
2022/08/28 04:14:35;;;;;;;10.15;6.15;;;;;;;;;;5047947;28;20516;-51
2022/08/28 04:17:03;;;;;;;10.10;6.47;;;;;;;;;;5052438;28;20258;-49
2022/08/28 04:19:31;;;;;;;10.52;6.65;;;;;;;;;;5050183;28;20197;-47
2022/08/28 04:21:58;;;;;;;13.32;6.63;;;;;;;;;;5045610;28;20193;-48
2022/08/28 04:24:25;;;;;;;14.18;7.25;;;;;;;;;;5046305;28;20223;-48
2022/08/28 04:26:53;;;;;;;14.90;7.30;;;;;;;;;;5047367;28;20196;-54
2022/08/28 04:29:21;;;;;;;11.88;7.28;;;;;;;;;;5045543;28;20209;-50
2022/08/28 04:31:49;;;;;;;9.82;6.97;;;;;;;;;;5045739;28;20208;-54
2022/08/28 04:34:16;;;;;;;12.40;7.32;;;;;;;;;;5047275;28;20188;-53
2022/08/28 04:36:45;;;;;;;10.73;7.68;;;;;;;;;;5045806;28;20554;-49
2022/08/28 04:39:12;;;;;;;15.13;7.53;;;;;;;;;;5045560;28;20647;-50
2022/08/28 04:41:39;;;;;;;12.07;7.30;;;;;;;;;;5045232;28;20200;-49
2022/08/28 04:44:06;;;;;;;12.43;7.65;;;;;;;;;;5046308;28;20540;-47
2022/08/28 04:46:35;;;;;;;16.52;8.35;;;;;;;;;;5048977;28;20212;-47
2022/08/28 04:49:03;;;;;;;13.55;8.30;;;;;;;;;;5053087;28;20219;-48
2022/08/28 04:51:30;;;;;;;14.98;8.15;;;;;;;;;;5046513;28;20209;-46
2022/08/28 04:53:58;;;;;;;14.75;8.05;;;;;;;;;;5044387;28;20210;-50
2022/08/28 04:56:25;;;;;;;12.65;7.97;;;;;;;;;;5033977;28;20207;-50
2022/08/28 04:58:52;;;;;;;13.95;8.18;;;;;;;;;;5046789;28;20559;-48
2022/08/28 05:01:23;;;;;;;14.80;8.90;;;;;;;;;;5046174;28;20525;-50
2022/08/28 05:03:58;;;;;;;12.05;8.20;;;;;;;;;;5043998;28;20225;-51
2022/08/28 05:06:27;;;;;;;13.75;9.18;;;;;;;;;;5045043;28;20187;-48
2022/08/28 05:08:59;;;;;;;17.98;8.80;;;;;;;;;;5045320;28;20262;-50
2022/08/28 05:11:28;;;;;;;12.93;8.73;;;;;;;;;;5044434;28;20195;-56
2022/08/28 05:14:05;;;;;;;14.40;9.45;;;;;;;;;;5050055;28;20195;-53
2022/08/28 05:16:38;;;;;;;15.85;8.98;;;;;;;;;;5047003;28;20228;-50
2022/08/28 05:19:06;;;;;;;16.65;11.07;;;;;;;;;;5050070;28;20243;-48
2022/08/28 05:21:32;;;;;;;18.17;9.85;;;;;;;;;;5036991;28;20569;-52
2022/08/28 05:23:59;;;;;;;18.08;10.55;;;;;;;;;;5055810;28;20699;-48
2022/08/28 05:26:27;;;;;;;18.88;11.63;;;;;;;;;;5038172;28;20224;-49
2022/08/28 05:28:56;;;;;;;17.48;11.43;;;;;;;;;;5031889;28;20342;-49
2022/08/28 05:31:24;;;;;;;16.20;10.98;;;;;;;;;;5046628;28;20299;-49
2022/08/28 05:33:52;;;;;;;18.67;11.25;;;;;;;;;;5035688;28;20225;-49
2022/08/28 05:36:21;;;;;;;18.90;11.20;;;;;;;;;;5035781;28;20232;-54
2022/08/28 05:38:55;;;;;;;19.08;11.85;;;;;;;;;;5036023;28;20244;-48
2022/08/28 05:41:24;;;;;;;22.58;11.75;;;;;;;;;;5035727;28;20229;-48
2022/08/28 05:43:52;;;;;;;16.77;11.93;;;;;;;;;;5036119;28;20559;-50
2022/08/28 05:46:20;;;;;;;16.77;10.85;;;;;;;;;;5035626;28;20224;-47
2022/08/28 05:48:48;;;;;;;20.67;11.50;;;;;;;;;;5036024;28;20228;-52
2022/08/28 05:51:20;;;;;;;21.73;11.23;;;;;;;;;;5035798;28;20236;-48
2022/08/28 05:53:48;;;;;;;15.32;11.05;;;;;;;;;;5035519;28;20738;-46
2022/08/28 05:56:20;;;;;;;21.63;11.77;;;;;;;;;;5036213;28;20228;-53
2022/08/28 05:58:47;;;;;;;18.20;11.75;;;;;;;;;;5047605;28;20306;-56
2022/08/28 06:01:14;;;;;;;18.20;11.65;;;;;;;;;;5029211;28;20239;-49
2022/08/28 06:03:43;;;;;;;16.25;11.70;;;;;;;;;;5034754;28;20290;-48
2022/08/28 06:06:11;;;;;;;19.90;11.55;;;;;;;;;;5035720;28;20320;-52
2022/08/28 06:08:39;;;;;;;23.20;11.27;;;;;;;;;;5035082;28;20243;-55
2022/08/28 06:11:25;;;;;;;17.85;11.30;;;;;;;;;;5035131;28;20237;-56
2022/08/28 06:14:08;;;;;;;19.48;11.18;;;;;;;;;;5035003;28;20615;-54
2022/08/28 06:16:37;;;;;;;19.73;11.15;;;;;;;;;;5034350;28;20231;-55
2022/08/28 06:19:05;;;;;;;15.75;11.18;;;;;;;;;;5034709;28;20220;-54
2022/08/28 06:21:32;;;;;;;21.95;10.75;;;;;;;;;;5034545;28;20604;-56
2022/08/28 06:23:59;;;;;;;21.73;12.48;;;;;;;;;;5035234;28;20323;-52
2022/08/28 06:26:27;;;;;;;18.77;11.77;;;;;;;;;;5034942;28;20228;-50
2022/08/28 06:28:59;;;;;;;18.67;11.98;;;;;;;;;;5034857;28;20311;-53
2022/08/28 06:31:27;;;;;;;21.73;10.93;;;;;;;;;;5034566;28;20209;-56
2022/08/28 06:34:00;;;;;;;19.55;11.15;;;;;;;;;;5034955;28;20225;-49
2022/08/28 06:36:29;;;;;;;20.52;11.30;;;;;;;;;;5034402;28;20677;-49
2022/08/28 06:38:58;;;;;;;20.40;10.57;;;;;;;;;;5050510;28;20250;-56
2022/08/28 06:41:27;;;;;;;19.52;10.95;;;;;;;;;;5054387;28;20227;-56
2022/08/28 06:43:56;;;;;;;19.20;10.95;;;;;;;;;;5020377;28;20694;-52
2022/08/28 06:46:23;;;;;;;20.63;12.15;;;;;;;;;;5052914;28;20228;-48
2022/08/28 06:48:51;;;;;;;17.55;10.95;;;;;;;;;;5053569;28;20232;-49
2022/08/28 06:51:18;;;;;;;19.52;11.23;;;;;;;;;;5053675;28;20238;-53
2022/08/28 06:53:48;;;;;;;15.90;10.95;;;;;;;;;;5052797;28;20227;-55
2022/08/28 06:56:18;;;;;;;18.38;10.75;;;;;;;;;;5036616;28;20231;-53
2022/08/28 06:58:54;;;;;;;19.58;10.98;;;;;;;;;;5032996;28;20227;-55
2022/08/28 07:01:27;;;;;;;18.23;11.80;;;;;;;;;;5041164;28;20240;-55
2022/08/28 07:04:00;;;;;;;19.25;11.30;;;;;;;;;;5052161;28;20691;-55
2022/08/28 07:06:32;;;;;;;20.63;10.85;;;;;;;;;;5053292;28;20350;-56
2022/08/28 07:08:59;;;;;;;19.08;12.48;;;;;;;;;;5053790;28;20234;-57
2022/08/28 07:11:29;;;;;;;18.38;11.13;;;;;;;;;;5052902;28;20289;-54
2022/08/28 07:13:57;;;;;;;14.63;10.63;;;;;;;;;;5053426;28;20246;-57
2022/08/28 07:16:29;;;;;;;18.38;10.93;;;;;;;;;;5052635;28;20239;-55
2022/08/28 07:18:57;;;;;;;22.90;12.20;;;;;;;;;;5052621;28;20680;-55
2022/08/28 07:21:25;;;;;;;23.25;12.05;;;;;;;;;;5051705;28;20235;-56
2022/08/28 07:23:52;;;;;;;17.65;11.55;;;;;;;;;;5051703;28;20251;-54
2022/08/28 07:26:22;;;;;;;19.73;11.77;;;;;;;;;;5053388;28;20274;-56
2022/08/28 07:28:53;;;;;;;18.33;12.07;;;;;;;;;;5052200;28;20259;-54
2022/08/28 07:31:42;;;;;;;19.20;11.88;;;;;;;;;;5052781;28;20227;-56
2022/08/28 07:34:10;;;;;;;32.50;12.30;;;;;;;;;;5036865;28;20245;-57
2022/08/28 07:36:37;;;;;;;19.65;12.05;;;;;;;;;;5053535;28;20247;-50
2022/08/28 07:39:05;;;;;;;21.23;12.80;;;;;;;;;;5053396;28;20235;-55
2022/08/28 07:41:35;;;;;;;17.63;11.80;;;;;;;;;;5044821;28;20252;-54
2022/08/28 07:46:53;;;;;;;18.15;11.73;;;;;;;;;;5034642;28;20566;-55
2022/08/28 07:49:21;;;;;;;22.42;11.70;;;;;;;;;;5034183;28;20586;-56
2022/08/28 07:51:49;;;;;;;20.50;11.68;;;;;;;;;;5017573;28;20212;-55
2022/08/28 07:54:21;;;;;;;23.05;12.02;;;;;;;;;;5034240;28;20269;-47
2022/08/28 07:56:49;;;;;;;20.75;11.15;;;;;;;;;;5032847;28;20205;-47
2022/08/28 07:59:16;;;;;;;17.20;11.13;;;;;;;;;;5032632;28;20235;-48
2022/08/28 08:01:47;;;;;;;19.15;10.82;;;;;;;;;;5034334;28;20229;-47
2022/08/28 08:04:15;;;;;;;21.20;11.23;;;;;;;;;;5033141;28;20565;-48
2022/08/28 08:06:42;;;;;;;19.98;10.98;;;;;;;;;;5032991;28;20208;-48
2022/08/28 08:09:12;;;;;;;16.42;10.80;;;;;;;;;;5034122;28;20204;-48
2022/08/28 08:11:40;;;;;;;19.02;10.82;;;;;;;;;;5033504;28;20208;-47
2022/08/28 08:14:07;;;;;;;15.82;10.98;;;;;;;;;;5033282;28;20280;-47
2022/08/28 08:16:39;;;;;;;17.55;11.13;;;;;;;;;;5033872;28;20205;-48
2022/08/28 08:19:08;;;;;;;18.90;11.32;;;;;;;;;;5033803;28;20200;-46
2022/08/28 08:21:36;;;;;;;18.80;11.20;;;;;;;;;;5034462;28;20634;-49
2022/08/28 08:24:04;;;;;;;17.17;11.65;;;;;;;;;;5034372;28;20212;-48
2022/08/28 08:26:34;;;;;;;22.88;11.70;;;;;;;;;;5034135;28;20209;-48
2022/08/28 08:29:02;;;;;;;17.90;11.43;;;;;;;;;;5034344;28;20216;-48
2022/08/28 08:31:31;;;;;;;19.85;11.98;;;;;;;;;;5034107;28;20299;-50
2022/08/28 08:34:00;;;;;;;19.83;12.25;;;;;;;;;;5034238;28;20209;-47
2022/08/28 08:36:29;;;;;;;22.60;12.35;;;;;;;;;;5034107;28;20634;-47
2022/08/28 08:38:57;;;;;;;20.13;11.68;;;;;;;;;;5034372;28;20215;-48
2022/08/28 08:41:46;;;;;;;17.73;11.45;;;;;;;;;;5037528;28;20213;-49
2022/08/28 08:44:22;;;;;;;22.40;12.30;;;;;;;;;;5020080;28;20212;-46
2022/08/28 08:47:11;;;;;;;16.67;11.18;;;;;;;;;;5037720;28;20216;-56
2022/08/28 08:49:48;;;;;;;17.52;10.07;;;;;;;;;;5036798;28;20263;-47
2022/08/28 08:52:26;;;;;;;14.85;10.43;;;;;;;;;;5019001;28;20668;-48
2022/08/28 08:55:21;;;;;;;21.27;10.85;;;;;;;;;;5019484;28;20205;-48
2022/08/28 08:58:12;;;;;;;16.20;10.02;;;;;;;;;;5036617;28;20205;-48
2022/08/28 09:00:53;;;;;;;17.67;9.75;;;;;;;;;;5019671;28;20212;-53
2022/08/28 09:03:43;;;;;;;16.52;9.68;;;;;;;;;;5035977;28;20549;-47
2022/08/28 09:06:20;;;;;;;12.80;8.98;;;;;;;;;;5019851;28;20220;-47
2022/08/28 09:08:53;;;;;;;13.85;9.07;;;;;;;;;;5019150;28;20204;-51
2022/08/28 09:12:00;;;;;;;18.13;9.55;;;;;;;;;;5038798;28;20208;-52
2022/08/28 09:15:06;;;;;;;14.52;8.63;;;;;;;;;;4971864;28;20214;-55
2022/08/28 09:17:41;;;;;;;12.43;8.35;;;;;;;;;;4956111;29;20199;-56
2022/08/28 09:20:12;;;;;;;18.02;8.38;;;;;;;;;;4939607;29;20242;-56
2022/08/28 09:22:44;;;;;;;16.30;9.52;;;;;;;;;;4955443;29;20679;-53
2022/08/28 09:25:32;;;;;;;14.70;8.60;;;;;;;;;;4957345;28;20227;-54
2022/08/28 09:28:08;;;;;;;19.73;8.70;;;;;;;;;;4962612;28;20254;-56
2022/08/28 09:30:36;;;;;;;19.65;8.73;;;;;;;;;;4969629;28;20234;-56
2022/08/28 09:33:03;;;;;;;17.75;8.68;;;;;;;;;;4966937;28;20687;-56
2022/08/28 09:35:31;;;;;;;15.10;8.15;;;;;;;;;;4961962;28;20231;-55
2022/08/28 09:38:20;;;;;;;13.85;8.18;;;;;;;;;;4970024;28;20238;-56
2022/08/28 09:43:34;;;;;;;14.50;7.93;;;;;;;;;;4973544;28;20744;-57
2022/08/28 09:46:24;;;;;;;13.85;8.00;;;;;;;;;;4968606;28;20423;-55
2022/08/28 09:48:51;;;;;;;16.92;7.55;;;;;;;;;;5012346;28;20215;-55
2022/08/28 09:51:21;;;;;;;12.35;7.88;;;;;;;;;;5053922;28;20254;-54
2022/08/28 09:53:50;;;;;;;16.23;7.93;;;;;;;;;;5042025;28;20320;-55
2022/08/28 09:56:38;;;;;;;16.38;8.68;;;;;;;;;;5053820;28;20220;-57
2022/08/28 09:59:16;;;;;;;16.58;7.88;;;;;;;;;;5038148;28;20227;-56
2022/08/28 10:01:57;;;;;;;17.05;7.85;;;;;;;;;;5054321;28;20493;-56
2022/08/28 10:04:39;;;;;;;14.50;8.10;;;;;;;;;;5036870;28;20238;-54
2022/08/28 10:07:46;;;;;;;13.05;7.63;;;;;;;;;;5043130;28;20236;-56
2022/08/28 10:10:31;;;;;;;15.30;7.82;;;;;;;;;;5017464;28;20244;-54
2022/08/28 10:13:04;;;;;;;14.57;7.60;;;;;;;;;;5017061;28;20247;-54
2022/08/28 10:15:40;;;;;;;13.38;8.13;;;;;;;;;;5035507;28;20232;-54
2022/08/28 10:18:12;;;;;;;12.85;7.82;;;;;;;;;;5041827;28;20224;-54
2022/08/28 10:21:11;;;;;;;12.68;7.32;;;;;;;;;;5046575;28;20681;-54
2022/08/28 10:23:51;;;;;;;13.43;7.75;;;;;;;;;;4956761;28;20229;-51
2022/08/28 10:26:45;;;;;;;16.58;7.80;;;;;;;;;;5033196;28;20250;-47
2022/08/28 10:29:22;;;;;;;14.90;8.63;;;;;;;;;;5044878;28;20231;-47
2022/08/28 10:32:14;;;;;;;20.08;8.05;;;;;;;;;;5043393;28;20298;-50
2022/08/28 10:35:14;;;;;;;14.15;8.20;;;;;;;;;;5044439;28;20228;-48
2022/08/28 10:37:57;;;;;;;15.55;8.63;;;;;;;;;;4963148;28;20227;-48
2022/08/28 10:40:30;;;;;;;15.13;8.25;;;;;;;;;;4949473;28;20762;-46
2022/08/28 10:43:19;;;;;;;14.68;9.05;;;;;;;;;;4967032;28;22252;-47
2022/08/28 10:45:48;;;;;;;21.73;8.18;;;;;;;;;;4963610;28;20239;-52
2022/08/28 10:48:21;;;;;;;21.08;9.48;;;;;;;;;;4969441;28;20652;-49
2022/08/28 10:51:13;;;;;;;24.15;9.60;;;;;;;;;;4962492;28;20227;-49
2022/08/28 10:53:53;;;;;;;18.25;8.40;;;;;;;;;;4971099;28;20672;-51
2022/08/28 10:56:28;;;;;;;13.45;8.27;;;;;;;;;;4957393;28;20550;-47
2022/08/28 10:59:00;;;;;;;17.55;7.70;;;;;;;;;;4973257;28;20674;-48
2022/08/28 11:01:37;;;;;;;15.30;8.52;;;;;;;;;;4969948;28;20227;-52
2022/08/28 11:04:13;;;;;;;16.30;8.10;;;;;;;;;;4971094;28;20675;-48
2022/08/28 11:07:13;;;;;;;12.75;7.68;;;;;;;;;;4966226;28;20246;-50
2022/08/28 11:09:46;;;;;;;15.82;8.45;;;;;;;;;;4949545;28;20305;-47
2022/08/28 11:12:17;;;;;;;18.83;7.80;;;;;;;;;;4949204;28;20234;-48
2022/08/28 11:14:49;;;;;;;15.10;7.68;;;;;;;;;;5020567;28;20208;-46
2022/08/28 11:17:29;;;;;;;20.10;8.35;;;;;;;;;;5016354;28;20215;-46
2022/08/28 11:20:19;;;;;;;17.38;8.18;;;;;;;;;;5033127;28;20206;-46
2022/08/28 11:22:49;;;;;;;13.15;8.23;;;;;;;;;;5033623;28;20201;-47
2022/08/28 11:25:58;;;;;;;14.38;8.23;;;;;;;;;;5032523;28;20225;-47
2022/08/28 11:28:35;;;;;;;17.08;8.50;;;;;;;;;;4918701;29;20674;-50
2022/08/28 11:31:04;;;;;;;18.08;8.60;;;;;;;;;;4933216;29;20212;-47
2022/08/28 11:33:51;;;;;;;13.70;8.02;;;;;;;;;;4933680;29;20279;-46
2022/08/28 11:36:18;;;;;;;14.00;8.48;;;;;;;;;;4932761;29;20207;-45
2022/08/28 11:38:54;;;;;;;13.85;8.13;;;;;;;;;;4933806;29;20653;-45
2022/08/28 11:41:30;;;;;;;15.25;8.02;;;;;;;;;;4936115;29;20208;-51
2022/08/28 11:44:13;;;;;;;14.05;7.43;;;;;;;;;;4920275;29;20218;-51
2022/08/28 11:46:43;;;;;;;16.17;7.45;;;;;;;;;;4935919;29;20275;-48
2022/08/28 11:49:36;;;;;;;13.98;7.97;;;;;;;;;;4935754;29;20215;-48
2022/08/28 11:52:21;;;;;;;14.63;8.15;;;;;;;;;;4920285;29;20215;-48
2022/08/28 11:55:16;;;;;;;14.20;8.10;;;;;;;;;;4934739;29;20207;-47
2022/08/28 11:57:45;;;;;;;12.55;7.43;;;;;;;;;;4919600;29;20212;-46
2022/08/28 12:00:34;;;;;;;17.90;7.63;;;;;;;;;;4934837;29;20204;-47
2022/08/28 12:03:14;;;;;;;15.32;7.80;;;;;;;;;;5010155;28;20227;-46
2022/08/28 12:05:47;;;;;;;16.92;7.50;;;;;;;;;;5033992;28;20239;-46
2022/08/28 12:08:46;;;;;;;16.00;7.82;;;;;;;;;;5032917;28;20213;-48
2022/08/28 12:11:38;;;;;;;11.93;7.50;;;;;;;;;;5033795;28;20205;-49
2022/08/28 12:14:11;;;;;;;11.55;7.13;;;;;;;;;;5035145;28;20576;-46
2022/08/28 12:16:57;;;;;;;11.80;7.45;;;;;;;;;;5037538;28;20216;-49
2022/08/28 12:19:33;;;;;;;13.77;6.72;;;;;;;;;;5037966;28;20209;-49
2022/08/28 12:22:18;;;;;;;10.98;6.78;;;;;;;;;;5036486;28;20205;-46
2022/08/28 12:24:46;;;;;;;11.20;6.50;;;;;;;;;;5037923;28;20218;-45
2022/08/28 12:27:14;;;;;;;20.45;7.55;;;;;;;;;;5037225;28;20232;-48
2022/08/28 12:29:48;;;;;;;12.43;6.75;;;;;;;;;;5037884;28;20212;-47
2022/08/28 12:32:34;;;;;;;11.95;6.05;;;;;;;;;;5019076;28;20267;-49
2022/08/28 12:35:01;;;;;;;12.30;6.28;;;;;;;;;;5037241;28;20567;-46
2022/08/28 12:37:33;;;;;;;12.35;6.40;;;;;;;;;;5037500;28;20274;-46
2022/08/28 12:40:38;;;;;;;12.32;6.80;;;;;;;;;;5036328;28;20204;-47
2022/08/28 12:43:08;;;;;;;12.05;6.22;;;;;;;;;;5035746;28;20925;-47
2022/08/28 12:45:41;;;;;;;8.25;6.13;;;;;;;;;;5019756;28;20290;-46
2022/08/28 12:48:25;;;;;;;14.25;6.97;;;;;;;;;;5037996;28;20287;-46
2022/08/28 12:51:07;;;;;;;13.45;6.55;;;;;;;;;;5037701;28;20291;-46
2022/08/28 12:53:46;;;;;;;11.80;5.82;;;;;;;;;;5037427;28;20266;-47
2022/08/28 12:56:15;;;;;;;12.07;6.30;;;;;;;;;;5035727;28;20759;-47
2022/08/28 12:58:44;;;;;;;14.38;6.28;;;;;;;;;;5020457;28;20185;-45
2022/08/28 13:01:19;;;;;;;12.02;6.28;;;;;;;;;;5037246;28;20536;-47
2022/08/28 13:04:03;;;;;;;9.77;6.35;;;;;;;;;;5037409;28;20625;-51
2022/08/28 13:06:37;;;;;;;11.85;6.28;;;;;;;;;;5037174;28;20319;-45
2022/08/28 13:09:16;;;;;;;16.02;6.63;;;;;;;;;;5037700;28;20220;-45
2022/08/28 13:11:45;;;;;;;12.52;6.20;;;;;;;;;;5019776;28;20204;-46
2022/08/28 13:14:32;;;;;;;12.35;6.45;;;;;;;;;;5020170;28;20209;-46
2022/08/28 13:16:59;;;;;;;10.05;5.22;;;;;;;;;;5036806;28;20295;-46
2022/08/28 13:19:29;;;;;;;14.93;5.28;;;;;;;;;;5019972;28;20204;-46
2022/08/28 13:22:03;;;;;;;11.68;5.00;;;;;;;;;;5036863;28;20216;-46
2022/08/28 13:24:33;;;;;;;16.00;5.15;;;;;;;;;;5035847;28;20208;-46
2022/08/28 13:27:12;;;;;;;10.90;5.35;;;;;;;;;;5036010;28;20312;-46
2022/08/28 13:30:02;;;;;;;13.43;5.15;;;;;;;;;;5035086;28;20212;-49
2022/08/28 13:32:32;;;;;;;13.02;4.72;;;;;;;;;;5021149;28;20205;-46
2022/08/28 13:35:12;;;;;;;12.88;4.45;;;;;;;;;;5036117;28;20205;-47
2022/08/28 13:37:54;;;;;;;10.15;4.78;;;;;;;;;;5035816;28;20227;-49
2022/08/28 13:40:31;;;;;;;17.25;4.75;;;;;;;;;;5034990;28;20617;-47
2022/08/28 13:43:22;;;;;;;14.90;4.97;;;;;;;;;;5036245;28;20248;-47
2022/08/28 13:45:50;;;;;;;10.10;4.90;;;;;;;;;;5036547;28;20236;-47
2022/08/28 13:48:25;;;;;;;8.05;4.75;;;;;;;;;;5036268;28;20524;-46
2022/08/28 13:50:56;;;;;;;10.93;5.25;;;;;;;;;;5036282;28;20215;-46
2022/08/28 13:53:24;;;;;;;11.85;5.07;;;;;;;;;;5036327;28;20235;-46
2022/08/28 13:55:51;;;;;;;10.50;4.82;;;;;;;;;;5043765;28;20580;-49
2022/08/28 13:58:18;;;;;;;9.73;4.88;;;;;;;;;;5046599;28;20200;-51
2022/08/28 14:00:47;;;;;;;10.93;5.63;;;;;;;;;;5045648;28;20218;-53
2022/08/28 14:06:11;;;;;;;13.07;4.63;;;;;;;;;;5055238;28;20282;-52
2022/08/28 14:08:43;;;;;;;16.10;5.00;;;;;;;;;;5053912;28;20202;-53
2022/08/28 14:11:12;;;;;;;11.63;5.68;;;;;;;;;;5051991;28;20188;-52
2022/08/28 14:13:42;;;;;;;11.98;5.40;;;;;;;;;;5054481;28;20200;-48
2022/08/28 14:16:23;;;;;;;13.77;5.50;;;;;;;;;;5055436;28;20196;-50
2022/08/28 14:18:51;;;;;;;9.57;4.97;;;;;;;;;;5054814;28;20232;-50
2022/08/28 14:21:19;;;;;;;9.65;5.45;;;;;;;;;;5042326;28;20577;-49
2022/08/28 14:23:46;;;;;;;8.75;5.05;;;;;;;;;;5034282;28;20236;-50
2022/08/28 14:26:13;;;;;;;10.95;4.72;;;;;;;;;;5034226;28;20751;-53
2022/08/28 14:28:41;;;;;;;7.93;4.57;;;;;;;;;;5034225;28;20527;-50
2022/08/28 14:31:08;;;;;;;7.80;4.82;;;;;;;;;;5032748;28;20228;-49
2022/08/28 14:33:40;;;;;;;14.55;4.90;;;;;;;;;;5039041;28;20675;-58
2022/08/28 14:36:22;;;;;;;12.25;4.57;;;;;;;;;;5039572;28;20234;-58
2022/08/28 14:38:50;;;;;;;13.30;5.00;;;;;;;;;;5068024;28;20552;-58
2022/08/28 14:41:21;;;;;;;14.23;5.00;;;;;;;;;;5071370;28;20232;-57
2022/08/28 14:43:48;;;;;;;7.32;4.43;;;;;;;;;;5036127;28;20239;-58
2022/08/28 14:46:22;;;;;;;12.40;5.03;;;;;;;;;;5052691;28;20305;-59
2022/08/28 14:48:49;;;;;;;10.48;5.20;;;;;;;;;;5052715;28;20248;-58
2022/08/28 14:51:16;;;;;;;9.50;5.22;;;;;;;;;;5052296;28;20236;-58
2022/08/28 14:53:44;;;;;;;9.95;5.60;;;;;;;;;;5053389;28;20243;-57
2022/08/28 14:56:11;;;;;;;11.60;5.40;;;;;;;;;;5054185;28;20663;-58
2022/08/28 14:58:38;;;;;;;14.18;5.30;;;;;;;;;;5054546;28;20227;-57
2022/08/28 15:01:05;;;;;;;12.52;5.28;;;;;;;;;;5054002;28;20734;-57
2022/08/28 15:03:32;;;;;;;10.15;4.95;;;;;;;;;;5053454;28;20220;-56
2022/08/28 15:06:05;;;;;;;17.25;5.50;;;;;;;;;;5049547;28;20222;-53
2022/08/28 15:08:33;;;;;;;16.48;6.07;;;;;;;;;;5032217;28;20235;-56
2022/08/28 15:11:09;;;;;;;10.13;5.07;;;;;;;;;;4999240;28;20229;-58